Time,TemperatureF,DewpointF,PressureIn,WindDirection,WindDirectionDegrees,WindSpeedMPH,WindSpeedGustMPH,Humidity,HourlyPrecipIn,Conditions,Clouds,dailyrainin,SolarRadiationWatts/m^2,SoftwareType,DateUTC
2013-06-07 00:03:00,62.6,50.0,29.80,North,5,2.0,-999.0,64,-99.99,,,0.00,0,weatherlink.com 1.10,2013-06-07 07:03:00,
2013-06-07 00:18:00,61.8,51.0,29.80,North,5,3.0,-999.0,67,-99.99,,,0.00,0,weatherlink.com 1.10,2013-06-07 07:18:00,
2013-06-07 00:33:00,60.9,51.0,29.80,West,267,0.0,-999.0,69,-99.99,,,0.00,0,weatherlink.com 1.10,2013-06-07 07:33:00,
2013-06-07 00:48:00,61.5,50.0,29.80,West,267,0.0,-999.0,67,-99.99,,,0.00,0,weatherlink.com 1.10,2013-06-07 07:48:00,
2013-06-07 01:03:00,61.7,49.0,29.80,West,267,0.0,-999.0,64,-99.99,,,0.00,0,weatherlink.com 1.10,2013-06-07 08:03:00,
2013-06-07 01:18:00,60.4,50.0,29.80,West,266,4.0,-999.0,69,-99.99,,,0.00,0,weatherlink.com 1.10,2013-06-07 08:18:00,
2013-06-07 01:33:00,59.6,50.0,29.80,SW,233,1.0,-999.0,70,-99.99,,,0.00,0,weatherlink.com 1.10,2013-06-07 08:33:00,
2013-06-07 01:48:00,58.8,50.0,29.80,SW,228,4.0,-999.0,72,-99.99,,,0.00,0,weatherlink.com 1.10,2013-06-07 08:48:00,
2013-06-07 02:03:00,59.2,49.0,29.80,SW,219,3.0,-999.0,70,-99.99,,,0.00,0,weatherlink.com 1.10,2013-06-07 09:03:00,
2013-06-07 02:18:00,59.2,49.0,29.80,SSW,202,4.0,-999.0,69,-99.99,,,0.00,0,weatherlink.com 1.10,2013-06-07 09:18:00,
2013-06-07 02:33:00,59.6,49.0,29.80,SSW,200,0.0,-999.0,67,-99.99,,,0.00,0,weatherlink.com 1.10,2013-06-07 09:33:00,
2013-06-07 02:48:00,59.2,49.0,29.80,SSW,200,4.0,-999.0,68,-99.99,,,0.00,0,weatherlink.com 1.10,2013-06-07 09:48:00,
2013-06-07 03:03:00,59.8,49.0,29.80,South,183,4.0,-999.0,67,-99.99,,,0.00,0,weatherlink.com 1.10,2013-06-07 10:03:00,
2013-06-07 03:18:00,59.6,48.0,29.80,South,177,1.0,-999.0,66,-99.99,,,0.00,0,weatherlink.com 1.10,2013-06-07 10:18:00,
2013-06-07 03:33:00,58.2,48.0,29.81,SSE,167,4.0,-999.0,68,-99.99,,,0.00,0,weatherlink.com 1.10,2013-06-07 10:33:00,
2013-06-07 03:48:00,57.5,48.0,29.80,SSE,167,0.0,-999.0,71,-99.99,,,0.00,0,weatherlink.com 1.10,2013-06-07 10:48:00,
2013-06-07 04:03:00,56.2,47.0,29.81,South,170,5.0,-999.0,71,-99.99,,,0.00,0,weatherlink.com 1.10,2013-06-07 11:03:00,
2013-06-07 04:18:00,56.6,46.0,29.81,South,170,2.0,-999.0,69,-99.99,,,0.00,0,weatherlink.com 1.10,2013-06-07 11:18:00,
2013-06-07 04:33:00,57.8,47.0,29.81,South,170,0.0,-999.0,68,-99.99,,,0.00,0,weatherlink.com 1.10,2013-06-07 11:33:00,
2013-06-07 04:48:00,58.1,48.0,29.81,South,170,0.0,-999.0,68,-99.99,,,0.00,0,weatherlink.com 1.10,2013-06-07 11:48:00,
2013-06-07 05:03:00,57.8,46.0,29.83,South,170,5.0,-999.0,64,-99.99,,,0.00,0,weatherlink.com 1.10,2013-06-07 12:03:00,
2013-06-07 05:18:00,58.3,46.0,29.83,South,174,5.0,-999.0,65,-99.99,,,0.00,0,weatherlink.com 1.10,2013-06-07 12:18:00,
2013-06-07 05:33:00,59.2,47.0,29.83,South,174,4.0,-999.0,64,-99.99,,,0.00,7,weatherlink.com 1.10,2013-06-07 12:33:00,
2013-06-07 05:48:00,61.1,46.0,29.83,South,174,4.0,-999.0,58,-99.99,,,0.00,21,weatherlink.com 1.10,2013-06-07 12:48:00,
2013-06-07 06:03:00,59.7,42.0,29.83,South,174,0.0,-999.0,52,-99.99,,,0.00,30,weatherlink.com 1.10,2013-06-07 13:03:00,
2013-06-07 06:18:00,59.6,42.0,29.84,South,174,0.0,-999.0,52,-99.99,,,0.00,91,weatherlink.com 1.10,2013-06-07 13:18:00,
2013-06-07 06:33:00,59.7,43.0,29.84,South,174,0.0,-999.0,55,-99.99,,,0.00,151,weatherlink.com 1.10,2013-06-07 13:33:00,
2013-06-07 06:48:00,61.0,45.0,29.84,South,174,1.0,-999.0,57,-99.99,,,0.00,197,weatherlink.com 1.10,2013-06-07 13:48:00,
2013-06-07 07:03:00,63.3,47.0,29.85,South,174,0.0,-999.0,56,-99.99,,,0.00,243,weatherlink.com 1.10,2013-06-07 14:03:00,
2013-06-07 07:18:00,63.9,47.0,29.84,SE,144,0.0,-999.0,54,-99.99,,,0.00,287,weatherlink.com 1.10,2013-06-07 14:18:00,
2013-06-07 07:33:00,64.6,46.0,29.84,SE,138,0.0,-999.0,51,-99.99,,,0.00,334,weatherlink.com 1.10,2013-06-07 14:33:00,
2013-06-07 07:48:00,65.8,46.0,29.84,SE,128,4.0,-999.0,49,-99.99,,,0.00,378,weatherlink.com 1.10,2013-06-07 14:48:00,
2013-06-07 08:03:00,66.6,46.0,29.84,ESE,117,0.0,-999.0,47,-99.99,,,0.00,424,weatherlink.com 1.10,2013-06-07 15:03:00,
2013-06-07 08:18:00,67.6,46.0,29.84,ESE,117,1.0,-999.0,46,-99.99,,,0.00,464,weatherlink.com 1.10,2013-06-07 15:18:00,
2013-06-07 08:33:00,68.2,43.0,29.85,East,94,4.0,-999.0,40,-99.99,,,0.00,513,weatherlink.com 1.10,2013-06-07 15:33:00,
2013-06-07 08:48:00,68.4,43.0,29.85,East,86,4.0,-999.0,40,-99.99,,,0.00,559,weatherlink.com 1.10,2013-06-07 15:48:00,
2013-06-07 09:03:00,69.1,43.0,29.84,NNW,333,1.0,-999.0,39,-99.99,,,0.00,606,weatherlink.com 1.10,2013-06-07 16:03:00,
2013-06-07 09:18:00,70.1,43.0,29.85,NNW,333,7.0,-999.0,38,-99.99,,,0.00,608,weatherlink.com 1.10,2013-06-07 16:18:00,
2013-06-07 09:33:00,70.4,44.0,29.84,NW,305,0.0,-999.0,39,-99.99,,,0.00,682,weatherlink.com 1.10,2013-06-07 16:33:00,
2013-06-07 09:48:00,72.0,43.0,29.83,WNW,288,3.0,-999.0,35,-99.99,,,0.00,710,weatherlink.com 1.10,2013-06-07 16:48:00,
2013-06-07 10:03:00,72.7,43.0,29.83,NW,304,6.0,-999.0,34,-99.99,,,0.00,747,weatherlink.com 1.10,2013-06-07 17:03:00,
2013-06-07 10:18:00,73.9,43.0,29.83,NNE,24,4.0,-999.0,33,-99.99,,,0.00,777,weatherlink.com 1.10,2013-06-07 17:18:00,
2013-06-07 10:33:00,74.5,43.0,29.82,NE,34,11.0,-999.0,33,-99.99,,,0.00,810,weatherlink.com 1.10,2013-06-07 17:33:00,
2013-06-07 10:48:00,74.6,44.0,29.82,NW,319,11.0,-999.0,33,-99.99,,,0.00,835,weatherlink.com 1.10,2013-06-07 17:48:00,
2013-06-07 11:03:00,75.2,44.0,29.82,NNE,19,4.0,-999.0,33,-99.99,,,0.00,870,weatherlink.com 1.10,2013-06-07 18:03:00,
2013-06-07 11:18:00,74.6,45.0,29.82,NNW,345,11.0,-999.0,35,-99.99,,,0.00,893,weatherlink.com 1.10,2013-06-07 18:18:00,
2013-06-07 11:33:00,75.4,45.0,29.82,North,355,9.0,-999.0,34,-99.99,,,0.00,900,weatherlink.com 1.10,2013-06-07 18:33:00,
2013-06-07 11:48:00,76.0,46.0,29.82,North,350,12.0,-999.0,34,-99.99,,,0.00,914,weatherlink.com 1.10,2013-06-07 18:48:00,
2013-06-07 12:03:00,75.8,46.0,29.82,NNW,336,13.0,-999.0,35,-99.99,,,0.00,930,weatherlink.com 1.10,2013-06-07 19:03:00,
2013-06-07 12:33:00,75.7,46.0,29.82,North,351,14.0,-999.0,35,-99.99,,,0.00,942,weatherlink.com 1.10,2013-06-07 19:33:00,
2013-06-07 12:48:00,76.1,47.0,29.82,North,10,7.0,-999.0,36,-99.99,,,0.00,946,weatherlink.com 1.10,2013-06-07 19:48:00,
2013-06-07 13:03:00,77.1,48.0,29.82,NNE,16,9.0,-999.0,36,-99.99,,,0.00,944,weatherlink.com 1.10,2013-06-07 20:03:00,
2013-06-07 13:48:00,78.8,50.0,29.80,North,355,12.0,-999.0,36,-99.99,,,0.00,933,weatherlink.com 1.10,2013-06-07 20:48:00,
2013-06-07 14:18:00,79.5,50.0,29.79,North,5,16.0,-999.0,35,-99.99,,,0.00,905,weatherlink.com 1.10,2013-06-07 21:18:00,
2013-06-07 14:33:00,79.7,50.0,29.79,North,349,15.0,-999.0,35,-99.99,,,0.00,886,weatherlink.com 1.10,2013-06-07 21:33:00,
2013-06-07 14:48:00,79.4,50.0,29.78,NW,323,13.0,-999.0,36,-99.99,,,0.00,865,weatherlink.com 1.10,2013-06-07 21:48:00,
2013-06-07 15:03:00,79.8,50.0,29.78,NW,319,19.0,-999.0,35,-99.99,,,0.00,844,weatherlink.com 1.10,2013-06-07 22:03:00,
2013-06-07 15:18:00,79.7,49.0,29.77,NW,315,21.0,-999.0,34,-99.99,,,0.00,814,weatherlink.com 1.10,2013-06-07 22:18:00,
2013-06-07 15:33:00,79.2,46.0,29.78,NNW,336,16.0,-999.0,31,-99.99,,,0.00,782,weatherlink.com 1.10,2013-06-07 22:33:00,
2013-06-07 15:48:00,79.0,47.0,29.78,WNW,298,17.0,-999.0,32,-99.99,,,0.00,754,weatherlink.com 1.10,2013-06-07 22:48:00,
2013-06-07 16:03:00,78.7,46.0,29.77,NW,310,12.0,-999.0,32,-99.99,,,0.00,724,weatherlink.com 1.10,2013-06-07 23:03:00,
2013-06-07 16:18:00,79.5,45.0,29.77,NW,313,15.0,-999.0,30,-99.99,,,0.00,687,weatherlink.com 1.10,2013-06-07 23:18:00,
2013-06-07 16:33:00,79.2,47.0,29.78,NNW,328,14.0,-999.0,32,-99.99,,,0.00,650,weatherlink.com 1.10,2013-06-07 23:33:00,
2013-06-07 17:18:00,78.2,48.0,29.78,NW,306,19.0,-999.0,35,-99.99,,,0.00,527,weatherlink.com 1.10,2013-06-08 00:18:00,
2013-06-07 17:48:00,78.1,45.0,29.78,NW,315,14.0,-999.0,31,-99.99,,,0.00,436,weatherlink.com 1.10,2013-06-08 00:48:00,
2013-06-07 18:03:00,77.1,45.0,29.78,NNW,336,21.0,-999.0,32,-99.99,,,0.00,388,weatherlink.com 1.10,2013-06-08 01:03:00,
2013-06-07 18:18:00,77.0,46.0,29.78,NW,321,16.0,-999.0,33,-99.99,,,0.00,343,weatherlink.com 1.10,2013-06-08 01:18:00,
2013-06-07 18:48:00,74.8,45.0,29.77,NNW,329,21.0,-999.0,35,-99.99,,,0.00,241,weatherlink.com 1.10,2013-06-08 01:48:00,
2013-06-07 19:03:00,74.0,45.0,29.77,NNW,330,18.0,-999.0,36,-99.99,,,0.00,185,weatherlink.com 1.10,2013-06-08 02:03:00,
2013-06-07 19:18:00,73.2,46.0,29.77,NW,322,14.0,-999.0,38,-99.99,,,0.00,135,weatherlink.com 1.10,2013-06-08 02:18:00,
2013-06-07 19:33:00,72.3,47.0,29.78,NNW,333,22.0,-999.0,40,-99.99,,,0.00,88,weatherlink.com 1.10,2013-06-08 02:33:00,
2013-06-07 20:03:00,70.4,47.0,29.79,NW,318,19.0,-999.0,43,-99.99,,,0.00,23,weatherlink.com 1.10,2013-06-08 03:03:00,
2013-06-07 20:18:00,69.2,47.0,29.79,NW,317,13.0,-999.0,45,-99.99,,,0.00,16,weatherlink.com 1.10,2013-06-08 03:18:00,
2013-06-07 20:33:00,68.8,45.0,29.80,WNW,286,10.0,-999.0,43,-99.99,,,0.00,11,weatherlink.com 1.10,2013-06-08 03:33:00,
2013-06-07 20:48:00,68.0,45.0,29.80,NW,322,10.0,-999.0,43,-99.99,,,0.00,0,weatherlink.com 1.10,2013-06-08 03:48:00,
2013-06-07 21:03:00,67.3,45.0,29.81,NNW,346,8.0,-999.0,45,-99.99,,,0.00,0,weatherlink.com 1.10,2013-06-08 04:03:00,
2013-06-07 21:18:00,66.4,45.0,29.82,NNW,346,6.0,-999.0,46,-99.99,,,0.00,0,weatherlink.com 1.10,2013-06-08 04:18:00,
2013-06-07 21:33:00,65.3,46.0,29.83,NNW,329,0.0,-999.0,50,-99.99,,,0.00,0,weatherlink.com 1.10,2013-06-08 04:33:00,
2013-06-07 21:48:00,64.2,46.0,29.84,North,355,8.0,-999.0,52,-99.99,,,0.00,0,weatherlink.com 1.10,2013-06-08 04:48:00,
2013-06-07 22:03:00,63.4,47.0,29.85,NW,306,6.0,-999.0,55,-99.99,,,0.00,0,weatherlink.com 1.10,2013-06-08 05:03:00,
2013-06-07 22:18:00,63.0,47.0,29.85,NW,317,9.0,-999.0,56,-99.99,,,0.00,0,weatherlink.com 1.10,2013-06-08 05:18:00,
2013-06-07 22:33:00,63.1,47.0,29.85,NW,324,8.0,-999.0,56,-99.99,,,0.00,0,weatherlink.com 1.10,2013-06-08 05:33:00,
2013-06-07 22:48:00,62.3,46.0,29.85,NNW,327,2.0,-999.0,56,-99.99,,,0.00,0,weatherlink.com 1.10,2013-06-08 05:48:00,
2013-06-07 23:03:00,61.3,46.0,29.86,WNW,284,2.0,-999.0,57,-99.99,,,0.00,0,weatherlink.com 1.10,2013-06-08 06:03:00,
2013-06-07 23:18:00,60.7,46.0,29.86,WNW,284,0.0,-999.0,58,-99.99,,,0.00,0,weatherlink.com 1.10,2013-06-08 06:18:00,
2013-06-07 23:33:00,60.1,46.0,29.86,WNW,283,1.0,-999.0,59,-99.99,,,0.00,0,weatherlink.com 1.10,2013-06-08 06:33:00,
2013-06-07 23:48:00,58.9,45.0,29.87,West,279,3.0,-999.0,60,-99.99,,,0.00,0,weatherlink.com 1.10,2013-06-08 06:48:00,